Time;durP1;ratioP1;P1;durP2;ratioP2;P2;SDS_P1;SDS_P2;PMS_P1;PMS_P2;Temp;Humidity;BMP_temperature;BMP_pressure;BME280_temperature;BME280_humidity;BME280_pressure;Samples;Min_cycle;Max_cycle;Signal;HPM_P1;HPM_P2
2022/12/31 00:00:37;;;;;;;0.95;0.60;;;;;;;13.80;80.53;99718.38;10343102;28;20710;-63
2022/12/31 00:05:39;;;;;;;0.95;0.50;;;;;;;13.81;80.57;99726.25;10340919;28;20049;-63
2022/12/31 00:10:40;;;;;;;1.10;0.57;;;;;;;13.83;80.56;99729.59;10342230;28;20077;-63
2022/12/31 00:15:43;;;;;;;0.65;0.50;;;;;;;13.87;80.44;99722.72;10341363;28;20393;-63
2022/12/31 00:20:44;;;;;;;0.90;0.60;;;;;;;13.86;80.36;99728.31;10345639;28;20070;-63
2022/12/31 00:25:45;;;;;;;0.50;0.40;;;;;;;13.87;80.66;99724.59;10322755;28;20074;-63
2022/12/31 00:30:47;;;;;;;1.90;0.40;;;;;;;13.91;80.93;99725.81;10344182;28;20572;-64
2022/12/31 00:35:48;;;;;;;0.40;0.25;;;;;;;13.95;80.91;99726.22;10347341;28;20046;-64
2022/12/31 00:40:49;;;;;;;1.17;0.45;;;;;;;14.05;80.77;99711.19;10343872;28;20050;-64
2022/12/31 00:45:51;;;;;;;1.00;0.35;;;;;;;14.08;80.89;99718.91;10341404;28;20085;-65
2022/12/31 00:50:54;;;;;;;1.10;0.40;;;;;;;14.19;80.81;99713.84;10341709;28;20053;-59
2022/12/31 00:56:00;;;;;;;1.42;0.50;;;;;;;14.22;80.45;99725.06;10343635;28;20066;-62
2022/12/31 01:01:25;;;;;;;0.70;0.30;;;;;;;14.24;80.57;99731.09;10348040;28;20065;-61
2022/12/31 01:06:26;;;;;;;1.42;0.30;;;;;;;14.31;80.50;99736.44;10348371;28;20073;-61
2022/12/31 01:11:28;;;;;;;1.63;0.20;;;;;;;14.35;80.45;99737.69;10346871;28;20484;-61
2022/12/31 01:16:37;;;;;;;0.63;0.30;;;;;;;14.37;80.31;99748.28;10346604;28;20130;-62
2022/12/31 01:21:40;;;;;;;0.80;0.30;;;;;;;14.43;79.96;99742.00;10335431;28;20398;-60
2022/12/31 01:26:42;;;;;;;0.90;0.20;;;;;;;14.47;79.99;99754.06;10345451;28;20073;-58
2022/12/31 01:31:43;;;;;;;1.38;0.28;;;;;;;14.49;80.15;99741.13;10349829;28;20079;-58
2022/12/31 01:36:45;;;;;;;0.65;0.20;;;;;;;14.57;80.03;99748.19;10346095;28;20042;-60
2022/12/31 01:41:46;;;;;;;1.25;0.20;;;;;;;14.56;79.97;99749.25;10335307;28;20211;-62
2022/12/31 01:46:57;;;;;;;0.57;0.20;;;;;;;14.60;79.73;99756.72;10331856;28;20081;-62
2022/12/31 01:52:07;;;;;;;0.43;0.20;;;;;;;14.64;79.67;99746.31;10342139;28;20042;-60
2022/12/31 01:57:10;;;;;;;1.45;0.20;;;;;;;14.70;79.65;99748.13;10338302;28;20046;-69
2022/12/31 02:02:14;;;;;;;2.50;0.20;;;;;;;14.73;79.52;99741.44;10340623;28;20073;-69
2022/12/31 02:07:15;;;;;;;0.95;0.20;;;;;;;14.80;79.37;99753.06;10344413;28;20038;-70
2022/12/31 02:12:17;;;;;;;0.82;0.17;;;;;;;14.85;79.32;99747.84;10338111;28;20456;-69
2022/12/31 02:17:36;;;;;;;0.73;0.28;;;;;;;14.93;79.00;99754.84;10335425;28;20532;-71
2022/12/31 02:22:56;;;;;;;0.50;0.20;;;;;;;15.00;78.76;99732.09;10342497;28;20073;-70
2022/12/31 02:28:33;;;;;;;0.30;0.20;;;;;;;15.06;78.54;99738.50;10345280;28;20089;-62
2022/12/31 02:33:40;;;;;;;0.65;0.40;;;;;;;15.20;78.22;99741.94;10348462;28;20077;-62
2022/12/31 02:38:45;;;;;;;0.20;0.17;;;;;;;15.29;77.86;99748.72;10351938;28;20074;-60
2022/12/31 02:43:46;;;;;;;0.20;0.20;;;;;;;15.41;77.70;99735.28;10336010;28;20088;-63
2022/12/31 02:48:56;;;;;;;0.57;0.20;;;;;;;15.47;77.34;99728.97;10348111;28;20064;-63
2022/12/31 02:54:20;;;;;;;0.95;0.20;;;;;;;15.52;77.12;99740.00;10352373;28;20685;-61
2022/12/31 03:05:14;;;;;;;0.50;0.17;;;;;;;15.62;76.73;99734.88;10350744;28;20077;-61
2022/12/31 03:10:16;;;;;;;0.68;0.17;;;;;;;15.70;76.21;99744.59;10349338;28;20269;-60
2022/12/31 03:15:21;;;;;;;0.95;0.30;;;;;;;15.74;75.78;99750.41;10342335;28;20466;-63
2022/12/31 03:25:50;;;;;;;2.38;0.30;;;;;;;15.81;75.70;99730.31;10346965;28;20050;-61
2022/12/31 03:31:01;;;;;;;1.45;0.30;;;;;;;15.85;75.15;99741.53;10348125;28;20049;-61
2022/12/31 03:36:06;;;;;;;0.57;0.30;;;;;;;15.98;74.88;99756.84;10341629;28;20124;-62
2022/12/31 03:41:09;;;;;;;1.98;0.38;;;;;;;16.05;74.39;99769.25;10344351;28;20050;-62
2022/12/31 03:46:11;;;;;;;0.75;0.40;;;;;;;16.09;74.27;99766.06;10328763;28;20042;-63
2022/12/31 03:51:12;;;;;;;0.93;0.30;;;;;;;16.12;74.28;99776.47;10352427;28;20056;-62
2022/12/31 03:56:13;;;;;;;0.82;0.40;;;;;;;16.12;73.84;99777.31;10343523;28;20069;-61
2022/12/31 04:01:15;;;;;;;1.58;0.20;;;;;;;16.13;73.66;99783.56;10348481;28;20089;-63
2022/12/31 04:06:16;;;;;;;1.00;0.30;;;;;;;16.08;73.75;99788.84;10347560;28;20050;-64
2022/12/31 04:11:18;;;;;;;0.77;0.30;;;;;;;16.11;73.65;99797.31;10346534;28;20047;-65
2022/12/31 04:16:21;;;;;;;1.75;0.60;;;;;;;16.15;73.72;99789.56;10342887;28;20046;-62
2022/12/31 04:21:23;;;;;;;2.42;0.60;;;;;;;16.14;73.60;99791.47;10347791;28;20077;-64
2022/12/31 04:26:27;;;;;;;1.80;0.30;;;;;;;16.19;73.12;99807.03;10327618;28;20058;-63
2022/12/31 04:31:29;;;;;;;1.20;0.30;;;;;;;16.19;73.27;99807.03;10343601;28;20077;-64
2022/12/31 04:36:30;;;;;;;2.92;0.32;;;;;;;16.26;73.19;99818.66;10346268;28;20077;-64
2022/12/31 04:41:32;;;;;;;1.45;0.40;;;;;;;16.21;73.57;99818.50;10345994;28;20054;-65
2022/12/31 04:46:33;;;;;;;1.17;0.40;;;;;;;16.20;73.36;99809.53;10341842;28;20493;-64
2022/12/31 04:51:35;;;;;;;0.98;0.47;;;;;;;16.24;73.46;99826.19;10343900;28;20130;-62
2022/12/31 04:56:37;;;;;;;2.10;0.65;;;;;;;16.33;73.28;99827.56;10342683;28;20050;-62
2022/12/31 05:01:38;;;;;;;2.05;0.35;;;;;;;16.35;73.00;99830.88;10348629;28;20125;-64
2022/12/31 05:06:39;;;;;;;0.63;0.30;;;;;;;16.39;73.19;99831.22;10346058;28;20050;-61
2022/12/31 05:11:41;;;;;;;2.40;0.63;;;;;;;16.43;72.59;99841.41;10337757;28;20100;-63
2022/12/31 05:16:42;;;;;;;1.55;0.20;;;;;;;16.52;72.68;99841.09;10341524;28;20069;-61
2022/12/31 05:22:27;;;;;;;2.33;0.40;;;;;;;16.61;72.44;99845.16;10337851;28;20058;-62
2022/12/31 05:27:05;;;;;;;3.00;0.60;;;;;;;16.57;72.38;99833.13;10340573;28;20145;-63
2022/12/31 05:32:06;;;;;;;0.52;0.35;;;;;;;16.56;72.09;99839.59;10343759;28;20085;-62
2022/12/31 05:37:08;;;;;;;1.15;0.50;;;;;;;16.63;72.00;99838.44;10339035;28;20088;-65
2022/12/31 05:42:09;;;;;;;1.83;0.30;;;;;;;16.68;71.94;99837.75;10340755;28;20080;-63
2022/12/31 05:47:10;;;;;;;0.55;0.47;;;;;;;16.69;71.76;99831.28;10341213;28;20077;-63
2022/12/31 05:52:12;;;;;;;1.33;0.30;;;;;;;16.76;71.65;99825.75;10340033;28;20058;-65
2022/12/31 05:57:14;;;;;;;0.40;0.20;;;;;;;16.76;71.75;99833.91;10341933;28;20046;-63
2022/12/31 06:02:15;;;;;;;4.60;0.30;;;;;;;16.75;71.26;99833.06;10343291;28;20096;-63
2022/12/31 06:07:17;;;;;;;0.80;0.40;;;;;;;16.84;71.34;99866.19;10343516;28;20373;-63
2022/12/31 06:12:18;;;;;;;1.33;0.30;;;;;;;16.93;71.12;99885.72;10342780;28;20078;-63
2022/12/31 06:17:21;;;;;;;1.35;0.30;;;;;;;17.01;70.99;99888.09;10338655;28;20102;-65
2022/12/31 06:22:22;;;;;;;0.75;0.30;;;;;;;17.05;70.81;99906.41;10342061;28;20066;-64
2022/12/31 06:27:24;;;;;;;1.88;0.20;;;;;;;17.05;70.79;99895.56;10340690;28;20108;-64
2022/12/31 06:32:25;;;;;;;0.25;0.20;;;;;;;17.14;70.87;99912.38;10348472;28;20073;-64
2022/12/31 06:37:26;;;;;;;0.75;0.22;;;;;;;17.15;70.70;99924.88;10342896;28;20045;-64
2022/12/31 06:42:32;;;;;;;1.33;0.40;;;;;;;17.18;70.55;99929.88;10344243;28;20070;-64
2022/12/31 06:47:33;;;;;;;1.17;0.50;;;;;;;17.18;70.47;99932.56;10344225;28;20133;-64
2022/12/31 06:52:35;;;;;;;0.77;0.30;;;;;;;17.21;70.28;99942.97;10340700;28;20145;-64
2022/12/31 06:57:36;;;;;;;1.98;0.20;;;;;;;17.27;70.22;99930.34;10335525;28;20126;-64
2022/12/31 07:02:53;;;;;;;2.65;0.45;;;;;;;17.28;69.87;99920.31;10340634;28;20069;-64
2022/12/31 07:08:11;;;;;;;0.40;0.30;;;;;;;17.29;69.83;99925.53;10377948;28;20096;-69
2022/12/31 07:13:30;;;;;;;1.38;1.02;;;;;;;17.32;69.63;99921.50;10393246;28;20053;-69
2022/12/31 07:18:44;;;;;;;1.30;0.50;;;;;;;17.29;69.59;99935.56;10381107;28;20045;-69
2022/12/31 07:23:45;;;;;;;0.60;0.30;;;;;;;17.34;69.30;99939.25;10403440;28;20038;-69
2022/12/31 07:29:04;;;;;;;1.75;0.30;;;;;;;17.35;68.84;99940.06;10398804;28;20299;-70
2022/12/31 07:34:30;;;;;;;0.55;0.20;;;;;;;17.40;68.63;99938.31;10404304;28;20050;-69
2022/12/31 07:39:44;;;;;;;0.82;0.20;;;;;;;17.41;68.78;99947.31;10392809;28;20050;-70
2022/12/31 07:45:06;;;;;;;2.65;0.35;;;;;;;17.43;68.44;99964.19;10403628;28;20050;-74
2022/12/31 07:55:33;;;;;;;2.25;0.30;;;;;;;17.40;68.18;99972.84;10568777;23;20072;-70
2022/12/31 08:00:34;;;;;;;2.80;0.30;;;;;;;17.42;67.94;99984.28;10344977;28;20061;-71
2022/12/31 08:05:49;;;;;;;0.50;0.30;;;;;;;17.37;67.87;99989.56;10336724;28;20137;-72
2022/12/31 08:11:03;;;;;;;9.00;2.30;;;;;;;17.39;67.81;99984.75;10355198;28;20116;-71
2022/12/31 08:16:10;;;;;;;1.67;0.30;;;;;;;17.41;67.46;99980.72;10336467;28;20445;-71
2022/12/31 08:21:48;;;;;;;2.10;0.60;;;;;;;17.39;67.27;99987.47;10352945;28;20747;-71
2022/12/31 08:27:05;;;;;;;1.58;0.30;;;;;;;17.40;66.90;100021.75;10335744;28;20377;-70
2022/12/31 08:32:22;;;;;;;1.15;0.40;;;;;;;17.43;66.62;100024.81;10359057;28;20078;-71
2022/12/31 08:37:24;;;;;;;1.50;0.50;;;;;;;17.47;66.38;100021.63;10342437;28;20053;-71
2022/12/31 08:42:41;;;;;;;0.68;0.30;;;;;;;17.50;66.47;100015.75;10341534;28;20069;-71
2022/12/31 08:48:16;;;;;;;3.78;1.02;;;;;;;17.47;66.35;100013.50;10344409;28;20105;-70
2022/12/31 08:53:17;;;;;;;3.53;0.50;;;;;;;17.37;66.44;100001.28;10350751;28;20072;-71
2022/12/31 08:58:40;;;;;;;1.35;0.40;;;;;;;17.32;66.24;100003.00;10341363;28;20529;-69
2022/12/31 09:04:05;;;;;;;0.65;0.35;;;;;;;17.27;66.31;100011.03;10358977;28;20100;-70
2022/12/31 09:09:15;;;;;;;3.00;0.30;;;;;;;17.25;65.89;100001.22;10333067;28;20484;-72
2022/12/31 09:14:27;;;;;;;1.25;0.50;;;;;;;17.27;66.03;100003.72;10356836;28;20062;-69
2022/12/31 09:19:28;;;;;;;0.70;0.40;;;;;;;17.30;65.82;100008.69;10338376;28;20387;-69
2022/12/31 09:24:30;;;;;;;3.05;0.40;;;;;;;17.32;65.79;100016.59;10353451;28;20371;-70
2022/12/31 09:29:44;;;;;;;3.00;0.57;;;;;;;17.36;65.43;100029.50;10353506;28;20100;-70
2022/12/31 09:34:56;;;;;;;1.90;0.75;;;;;;;17.34;65.22;100047.94;10313159;28;20042;-69
2022/12/31 09:40:14;;;;;;;1.42;0.40;;;;;;;17.39;65.13;100042.63;10344533;28;20046;-69
2022/12/31 09:45:33;;;;;;;4.15;0.40;;;;;;;17.36;65.19;100053.16;10332418;28;20057;-69
2022/12/31 09:50:35;;;;;;;3.28;0.50;;;;;;;17.38;64.86;100045.59;10352787;28;20112;-69
2022/12/31 09:55:50;;;;;;;4.65;0.82;;;;;;;17.43;64.72;100043.81;10337810;28;20041;-69
2022/12/31 10:01:02;;;;;;;1.00;0.40;;;;;;;17.40;64.71;100035.31;10353751;28;20396;-70
2022/12/31 10:06:16;;;;;;;3.08;0.73;;;;;;;17.45;64.37;100066.16;10344404;28;20062;-70
2022/12/31 10:12:02;;;;;;;0.77;0.40;;;;;;;17.53;64.05;100046.00;10342562;28;20058;-71
2022/12/31 10:17:30;;;;;;;0.85;0.73;;;;;;;17.56;64.08;100059.16;10343044;28;20066;-72
2022/12/31 10:23:13;;;;;;;2.80;0.43;;;;;;;17.63;63.93;100076.22;10340959;28;20074;-70
2022/12/31 10:28:55;;;;;;;2.08;0.40;;;;;;;17.66;63.78;100079.53;10341701;28;20101;-72
2022/12/31 10:34:25;;;;;;;2.60;0.52;;;;;;;17.73;63.47;100072.09;10341530;28;20488;-71
2022/12/31 10:39:41;;;;;;;1.85;1.30;;;;;;;17.76;63.27;100085.25;10341616;28;20077;-70
2022/12/31 10:45:14;;;;;;;1.13;0.57;;;;;;;17.89;63.33;100087.81;10337387;28;20061;-71
2022/12/31 10:50:28;;;;;;;3.15;0.60;;;;;;;17.95;62.86;100092.31;10345248;28;20054;-70
2022/12/31 10:56:08;;;;;;;1.48;0.40;;;;;;;18.01;62.68;100085.97;10349973;28;20050;-69
2022/12/31 11:01:26;;;;;;;1.02;0.30;;;;;;;18.00;62.54;100087.00;10328371;28;20050;-70
2022/12/31 11:06:51;;;;;;;2.13;0.50;;;;;;;18.04;62.29;100090.09;10341428;28;20058;-70
2022/12/31 11:12:03;;;;;;;1.20;0.40;;;;;;;18.06;62.25;100104.28;10346071;28;20564;-70
2022/12/31 11:17:42;;;;;;;2.10;0.70;;;;;;;18.09;62.21;100106.56;10345462;28;20081;-69
2022/12/31 11:23:04;;;;;;;2.70;0.55;;;;;;;18.03;62.28;100113.75;10348555;28;20065;-71
2022/12/31 11:28:35;;;;;;;1.75;0.50;;;;;;;17.99;62.08;100123.44;10347617;28;20077;-71
2022/12/31 11:34:09;;;;;;;3.22;0.40;;;;;;;18.10;61.99;100110.09;10347474;28;20141;-71
2022/12/31 11:39:24;;;;;;;2.75;0.32;;;;;;;18.14;62.07;100114.84;10326998;28;20129;-71
2022/12/31 11:44:45;;;;;;;2.25;0.45;;;;;;;18.17;61.66;100108.13;10342779;28;20378;-69
2022/12/31 11:49:46;;;;;;;1.45;0.40;;;;;;;18.22;61.17;100105.53;10349608;28;20065;-71
2022/12/31 11:55:10;;;;;;;1.70;0.40;;;;;;;18.24;61.16;100103.41;10347216;28;20100;-70
2022/12/31 12:00:19;;;;;;;2.35;0.38;;;;;;;18.38;61.07;100084.97;10340398;28;20081;-70
2022/12/31 12:05:24;;;;;;;0.98;0.50;;;;;;;18.39;60.88;100075.75;10347052;28;20089;-70
2022/12/31 12:10:31;;;;;;;1.10;0.40;;;;;;;18.41;60.68;100073.63;10345603;28;20089;-70
2022/12/31 12:15:38;;;;;;;1.85;0.47;;;;;;;18.54;60.67;100069.84;10348211;28;20055;-69
2022/12/31 12:20:42;;;;;;;1.08;0.47;;;;;;;18.57;60.40;100059.31;10346900;28;20133;-69
2022/12/31 12:25:44;;;;;;;4.93;0.70;;;;;;;18.61;60.01;100073.28;10344064;28;20054;-70
2022/12/31 12:30:54;;;;;;;2.97;1.15;;;;;;;18.67;59.69;100061.44;10343668;28;20507;-69
2022/12/31 12:36:10;;;;;;;1.10;0.47;;;;;;;18.72;59.56;100055.28;10346983;28;20505;-69
2022/12/31 12:41:24;;;;;;;2.67;0.52;;;;;;;18.80;59.32;100041.38;10341773;28;20062;-70
2022/12/31 12:46:42;;;;;;;2.50;0.50;;;;;;;18.85;59.00;100048.81;10343340;28;20112;-70
2022/12/31 12:52:24;;;;;;;1.63;0.50;;;;;;;18.83;58.83;100055.31;10345484;28;20042;-69
2022/12/31 12:58:01;;;;;;;2.63;0.40;;;;;;;18.86;58.64;100042.28;10324978;28;20074;-70
2022/12/31 13:03:26;;;;;;;3.00;0.38;;;;;;;18.85;58.40;100059.72;10321888;28;20104;-69
2022/12/31 13:09:00;;;;;;;1.23;0.40;;;;;;;18.79;58.19;100069.63;10343660;28;20078;-70
2022/12/31 13:14:23;;;;;;;1.90;0.40;;;;;;;18.87;58.26;100057.56;10336496;28;20123;-70
2022/12/31 13:19:42;;;;;;;2.92;1.20;;;;;;;18.87;58.13;100046.69;10345590;28;20547;-71
2022/12/31 13:25:06;;;;;;;1.75;0.40;;;;;;;18.89;58.24;100067.16;10340676;28;20116;-69
2022/12/31 13:30:20;;;;;;;4.10;0.65;;;;;;;18.93;58.08;100053.91;10346660;28;20054;-72
2022/12/31 13:35:26;;;;;;;5.45;1.33;;;;;;;18.94;58.07;100029.16;10344859;28;20065;-72
2022/12/31 13:40:55;;;;;;;0.80;0.50;;;;;;;18.87;58.09;100033.88;10350872;28;20069;-70
2022/12/31 13:46:09;;;;;;;3.15;0.52;;;;;;;18.87;58.15;100038.50;10342437;28;20408;-72
2022/12/31 13:51:33;;;;;;;1.80;0.65;;;;;;;18.90;58.08;100021.66;10349493;28;20058;-71
2022/12/31 13:56:37;;;;;;;3.05;0.60;;;;;;;18.87;57.90;100014.81;10344011;28;20137;-72
2022/12/31 14:01:53;;;;;;;2.95;0.47;;;;;;;18.86;57.50;100017.78;10346001;28;20509;-72
2022/12/31 14:07:18;;;;;;;2.28;0.40;;;;;;;18.78;57.43;100030.69;10346433;28;20050;-69
2022/12/31 14:12:39;;;;;;;1.65;0.35;;;;;;;18.80;57.53;100046.81;10345312;28;20077;-72
2022/12/31 14:17:50;;;;;;;1.23;0.30;;;;;;;18.75;57.59;100052.94;10340040;28;20650;-70
2022/12/31 14:23:14;;;;;;;1.17;0.30;;;;;;;18.75;57.50;100061.09;10353211;28;20070;-69
2022/12/31 14:28:22;;;;;;;2.17;0.50;;;;;;;18.68;57.67;100075.88;10369165;28;20623;-69
2022/12/31 14:33:37;;;;;;;3.70;0.52;;;;;;;18.67;57.59;100072.34;10354621;28;20058;-69
2022/12/31 14:38:53;;;;;;;2.13;0.40;;;;;;;18.66;57.78;100083.47;10366960;28;20097;-70
2022/12/31 14:44:31;;;;;;;1.52;0.30;;;;;;;18.58;57.62;100085.50;10366369;28;20681;-71
2022/12/31 14:49:46;;;;;;;0.60;0.30;;;;;;;18.53;57.61;100084.53;10348874;28;20098;-72
2022/12/31 14:55:20;;;;;;;0.50;0.30;;;;;;;18.49;57.70;100089.63;10352032;28;20088;-70
2022/12/31 15:00:35;;;;;;;1.05;0.40;;;;;;;18.47;57.61;100083.56;10358075;28;20039;-71
2022/12/31 15:05:37;;;;;;;2.20;0.45;;;;;;;18.39;57.75;100087.47;10360079;28;20416;-69
2022/12/31 15:11:00;;;;;;;1.02;0.30;;;;;;;18.28;57.90;100101.06;10349495;28;20389;-69
2022/12/31 15:16:22;;;;;;;16.20;1.15;;;;;;;18.29;57.78;100097.28;10328122;28;20049;-70
2022/12/31 15:21:39;;;;;;;1.67;0.40;;;;;;;18.24;57.74;100100.69;10351356;28;20054;-71
2022/12/31 15:26:48;;;;;;;3.20;0.38;;;;;;;18.14;57.68;100097.69;10344442;28;20106;-71
2022/12/31 15:31:50;;;;;;;1.20;0.30;;;;;;;18.15;57.60;100115.69;10345751;28;20456;-71
2022/12/31 15:36:56;;;;;;;3.85;0.40;;;;;;;18.11;57.22;100101.72;10350633;28;20066;-70
2022/12/31 15:41:59;;;;;;;1.80;0.43;;;;;;;18.08;56.90;100090.47;10353274;28;20128;-70
2022/12/31 15:47:40;;;;;;;2.28;0.40;;;;;;;18.11;57.00;100092.72;10346972;28;20055;-68
2022/12/31 15:52:46;;;;;;;1.25;0.52;;;;;;;18.09;57.14;100097.56;10340866;28;20409;-70
2022/12/31 15:57:49;;;;;;;1.10;0.50;;;;;;;18.01;57.04;100106.91;10352512;28;20551;-70
2022/12/31 16:02:53;;;;;;;3.45;0.50;;;;;;;17.96;57.09;100106.75;10348682;28;20460;-69
2022/12/31 16:07:57;;;;;;;1.48;0.60;;;;;;;17.84;57.49;100099.38;10329946;28;20510;-69
2022/12/31 16:12:58;;;;;;;4.22;0.47;;;;;;;17.85;57.27;100105.63;10351867;28;20073;-65
2022/12/31 16:18:08;;;;;;;3.58;0.82;;;;;;;17.78;57.46;100108.41;10353216;28;20058;-66
2022/12/31 16:23:24;;;;;;;2.75;0.68;;;;;;;17.71;57.50;100109.56;10347292;28;20054;-66
2022/12/31 16:28:31;;;;;;;0.68;0.40;;;;;;;17.63;57.59;100107.97;10351629;28;20136;-67
2022/12/31 16:33:33;;;;;;;4.45;0.75;;;;;;;17.58;58.12;100103.22;10330339;28;20432;-67
2022/12/31 16:38:36;;;;;;;2.00;1.10;;;;;;;17.55;57.83;100117.28;10353611;28;20124;-67
2022/12/31 16:43:39;;;;;;;1.40;0.88;;;;;;;17.50;57.93;100114.41;10349208;28;20524;-66
2022/12/31 16:48:45;;;;;;;1.48;0.85;;;;;;;17.48;57.75;100127.41;10346734;28;20045;-63
2022/12/31 16:53:48;;;;;;;4.32;1.60;;;;;;;17.44;57.77;100128.91;10347357;28;20120;-66
2022/12/31 16:58:58;;;;;;;3.95;1.95;;;;;;;17.48;57.88;100123.88;10358541;28;20447;-65
2022/12/31 17:04:03;;;;;;;5.22;1.50;;;;;;;17.38;57.61;100116.25;10352819;28;20066;-65
2022/12/31 17:09:30;;;;;;;5.53;1.42;;;;;;;17.40;57.57;100122.28;10342582;28;20074;-66
2022/12/31 17:14:46;;;;;;;2.08;1.10;;;;;;;17.33;57.56;100113.38;10349489;28;20046;-64
2022/12/31 17:19:54;;;;;;;5.70;1.00;;;;;;;17.33;57.72;100124.22;10341878;28;21274;-63
2022/12/31 17:25:01;;;;;;;4.43;0.80;;;;;;;17.30;57.40;100121.94;10330478;28;20108;-65
2022/12/31 17:30:36;;;;;;;2.85;1.27;;;;;;;17.23;57.23;100133.72;10306048;28;20045;-64
2022/12/31 17:35:41;;;;;;;5.18;2.15;;;;;;;17.26;57.44;100124.31;10326793;28;20050;-63
2022/12/31 17:40:44;;;;;;;2.28;1.90;;;;;;;17.29;57.09;100125.75;10349627;28;20038;-68
2022/12/31 17:45:53;;;;;;;3.53;1.10;;;;;;;17.26;57.03;100121.59;10349840;28;20145;-67
2022/12/31 17:50:57;;;;;;;2.95;1.05;;;;;;;17.18;57.44;100117.28;10343247;28;20138;-67
2022/12/31 17:56:02;;;;;;;3.72;1.13;;;;;;;17.18;56.93;100120.00;10346922;28;20050;-67
2022/12/31 18:01:05;;;;;;;2.90;1.55;;;;;;;17.10;56.92;100122.16;10344185;28;20050;-67
2022/12/31 18:06:11;;;;;;;3.58;2.58;;;;;;;17.15;56.85;100125.06;10349642;28;20081;-65
2022/12/31 18:11:21;;;;;;;5.32;2.00;;;;;;;17.09;56.99;100131.38;10332138;28;20078;-67
2022/12/31 18:16:22;;;;;;;3.88;2.55;;;;;;;17.03;57.04;100139.38;10349467;28;20112;-66
2022/12/31 18:21:32;;;;;;;5.38;1.50;;;;;;;16.93;57.10;100136.34;10346185;28;20061;-66
2022/12/31 18:26:34;;;;;;;3.83;2.13;;;;;;;16.90;57.30;100141.38;10343730;28;20107;-64
2022/12/31 18:31:36;;;;;;;3.70;2.15;;;;;;;16.84;57.45;100146.66;10341533;28;20066;-67
2022/12/31 18:36:38;;;;;;;7.45;2.03;;;;;;;16.75;57.36;100161.53;10338379;28;20066;-65
2022/12/31 18:41:48;;;;;;;4.57;2.92;;;;;;;16.72;57.09;100158.41;10337436;28;20078;-66
2022/12/31 18:46:49;;;;;;;5.70;2.40;;;;;;;16.72;57.24;100161.13;10338027;28;20137;-67
2022/12/31 18:51:53;;;;;;;4.95;1.90;;;;;;;16.68;57.21;100160.72;10343446;28;20054;-66
2022/12/31 18:56:54;;;;;;;2.35;1.30;;;;;;;16.71;57.13;100167.63;10333155;28;20137;-66
2022/12/31 19:01:57;;;;;;;5.55;1.75;;;;;;;16.70;56.91;100180.34;10344392;28;20044;-67
2022/12/31 19:06:59;;;;;;;3.38;1.38;;;;;;;16.66;56.92;100181.84;10345066;28;20054;-66
2022/12/31 19:12:00;;;;;;;4.45;1.42;;;;;;;16.65;56.65;100180.19;10352503;28;20046;-66
2022/12/31 19:17:01;;;;;;;4.30;1.60;;;;;;;16.68;56.65;100177.00;10354225;28;20053;-66
2022/12/31 19:22:02;;;;;;;4.70;1.50;;;;;;;16.69;56.49;100165.13;10340737;28;20054;-65
2022/12/31 19:27:03;;;;;;;7.55;2.13;;;;;;;16.67;56.19;100178.09;10348977;28;20074;-65
2022/12/31 19:32:04;;;;;;;3.22;1.60;;;;;;;16.69;56.04;100184.13;10336837;28;20084;-66
2022/12/31 19:37:12;;;;;;;5.75;2.47;;;;;;;16.65;56.14;100181.00;10347763;28;20064;-66
2022/12/31 19:42:14;;;;;;;5.00;2.22;;;;;;;16.71;55.82;100181.19;10349929;28;20137;-66
2022/12/31 19:47:15;;;;;;;8.23;3.00;;;;;;;16.73;55.86;100184.53;10346690;28;20057;-66
2022/12/31 19:52:17;;;;;;;15.77;9.10;;;;;;;16.66;55.87;100193.50;10347193;28;20042;-65
2022/12/31 19:57:18;;;;;;;7.57;4.35;;;;;;;16.61;55.75;100178.97;10349429;28;20073;-66
2022/12/31 20:02:19;;;;;;;9.60;3.22;;;;;;;16.52;55.92;100183.00;10330855;28;20053;-67
2022/12/31 20:07:21;;;;;;;7.32;3.72;;;;;;;16.45;56.01;100183.88;10350732;28;20465;-67
2022/12/31 20:12:27;;;;;;;6.43;3.40;;;;;;;16.39;56.05;100192.88;10344384;28;20080;-66
2022/12/31 20:17:29;;;;;;;3.22;2.47;;;;;;;16.33;56.09;100198.34;10351537;28;20105;-67
2022/12/31 20:22:31;;;;;;;5.43;2.50;;;;;;;16.25;56.12;100199.41;10344815;28;20105;-66
2022/12/31 20:27:32;;;;;;;5.40;2.55;;;;;;;16.22;56.26;100208.81;10343456;28;20101;-66
2022/12/31 20:32:34;;;;;;;5.22;2.78;;;;;;;16.20;56.33;100207.38;10340401;28;20077;-66
2022/12/31 20:37:35;;;;;;;5.57;3.40;;;;;;;16.17;56.14;100200.53;10345741;28;20506;-65
2022/12/31 20:42:39;;;;;;;9.15;5.25;;;;;;;16.14;56.29;100217.22;10350323;28;20521;-65
2022/12/31 20:47:40;;;;;;;7.50;4.10;;;;;;;16.11;56.55;100214.09;10343036;28;20065;-66
2022/12/31 20:52:43;;;;;;;7.32;5.05;;;;;;;16.04;56.43;100203.28;10328116;28;20112;-66
2022/12/31 20:57:44;;;;;;;7.97;4.90;;;;;;;16.01;56.34;100203.72;10347385;28;20089;-66
2022/12/31 21:02:45;;;;;;;7.68;4.65;;;;;;;16.03;56.54;100217.88;10329430;28;20062;-66
2022/12/31 21:08:00;;;;;;;9.23;5.95;;;;;;;16.03;56.24;100224.16;10349805;28;20050;-65
2022/12/31 21:13:02;;;;;;;7.07;5.53;;;;;;;16.09;56.21;100224.34;10346430;28;20046;-66
2022/12/31 21:18:03;;;;;;;7.07;4.38;;;;;;;16.05;56.41;100227.50;10336885;28;20100;-65
2022/12/31 21:23:05;;;;;;;7.82;3.10;;;;;;;16.09;56.08;100224.34;10348275;28;20050;-64
2022/12/31 21:28:06;;;;;;;9.43;5.13;;;;;;;16.10;56.25;100231.44;10328363;28;20054;-64
2022/12/31 21:33:08;;;;;;;7.03;3.88;;;;;;;16.16;55.98;100233.28;10349109;28;20054;-64
2022/12/31 21:38:09;;;;;;;8.07;3.60;;;;;;;16.09;56.09;100237.88;10342058;28;20105;-65
2022/12/31 21:43:11;;;;;;;7.80;3.35;;;;;;;16.09;56.56;100233.28;10345920;28;20042;-65
2022/12/31 21:48:20;;;;;;;8.32;4.47;;;;;;;16.07;56.28;100235.38;10344975;28;20088;-66
2022/12/31 21:53:23;;;;;;;10.00;3.90;;;;;;;16.09;56.35;100246.03;10343466;28;20058;-65
2022/12/31 21:58:39;;;;;;;9.93;4.03;;;;;;;16.06;56.35;100241.88;10347423;28;20090;-66
2022/12/31 22:03:42;;;;;;;6.68;3.83;;;;;;;16.02;56.74;100254.19;10327384;28;20097;-66
2022/12/31 22:08:44;;;;;;;7.32;3.80;;;;;;;16.00;56.57;100250.88;10343649;28;20050;-67
2022/12/31 22:13:46;;;;;;;8.43;4.22;;;;;;;15.96;56.80;100255.06;10338344;28;20521;-67
2022/12/31 22:18:49;;;;;;;7.20;3.78;;;;;;;15.87;56.96;100265.28;10347948;28;20625;-66
2022/12/31 22:23:52;;;;;;;7.40;4.38;;;;;;;15.83;56.99;100272.19;10346449;28;20141;-66
2022/12/31 22:28:57;;;;;;;5.65;3.47;;;;;;;15.87;57.08;100284.25;10345580;28;20050;-66
2022/12/31 22:34:00;;;;;;;7.88;3.38;;;;;;;15.84;57.06;100296.38;10341457;28;20058;-66
2022/12/31 22:39:02;;;;;;;10.57;5.10;;;;;;;15.76;57.22;100291.19;10345857;28;20124;-66
2022/12/31 22:44:03;;;;;;;9.52;4.50;;;;;;;15.76;57.48;100296.59;10346002;28;20054;-66
2022/12/31 22:49:05;;;;;;;9.98;4.45;;;;;;;15.75;57.67;100294.09;10355077;28;20061;-66
2022/12/31 22:54:08;;;;;;;11.60;6.00;;;;;;;15.74;57.55;100306.81;10351614;28;20072;-66
2022/12/31 22:59:09;;;;;;;12.27;5.47;;;;;;;15.75;57.67;100304.94;10352860;28;20050;-66
2022/12/31 23:04:11;;;;;;;211.70;80.75;;;;;;;15.74;57.58;100301.41;10349666;28;20410;-65
2022/12/31 23:25:15;;;;;;;144.38;89.63;;;;;;;15.56;58.38;100320.97;10352620;28;20077;-64
2022/12/31 23:30:16;;;;;;;131.55;87.05;;;;;;;15.50;58.44;100316.41;10346897;28;20074;-65
2022/12/31 23:35:18;;;;;;;142.15;92.80;;;;;;;15.42;58.72;100317.44;10351826;28;20053;-65
2022/12/31 23:40:20;;;;;;;151.57;92.78;;;;;;;15.31;58.97;100311.81;10347407;28;20049;-66
2022/12/31 23:45:22;;;;;;;152.85;95.72;;;;;;;15.30;59.00;100335.34;10345711;28;20129;-65
2022/12/31 23:50:30;;;;;;;160.60;102.18;;;;;;;15.25;59.08;100338.69;10350675;28;20046;-66
2022/12/31 23:55:31;;;;;;;134.82;88.45;;;;;;;15.12;59.27;100327.81;10345471;28;20578;-65
